sensor_id;sensor_type;location;lat;lon;timestamp;P1;durP1;ratioP1;P2;durP2;ratioP2
19595;SDS011;9945;46.010;8.946;2023-01-08T00:00:44;26.13;;;19.23;;
19595;SDS011;9945;46.010;8.946;2023-01-08T00:03:11;29.57;;;20.53;;
19595;SDS011;9945;46.010;8.946;2023-01-08T00:05:38;26.90;;;20.20;;
19595;SDS011;9945;46.010;8.946;2023-01-08T00:08:06;27.07;;;21.47;;
19595;SDS011;9945;46.010;8.946;2023-01-08T00:10:33;25.03;;;19.20;;
19595;SDS011;9945;46.010;8.946;2023-01-08T00:13:02;29.30;;;21.67;;
19595;SDS011;9945;46.010;8.946;2023-01-08T00:15:29;25.93;;;21.33;;
19595;SDS011;9945;46.010;8.946;2023-01-08T00:17:56;27.80;;;20.80;;
19595;SDS011;9945;46.010;8.946;2023-01-08T00:20:23;28.87;;;20.53;;
19595;SDS011;9945;46.010;8.946;2023-01-08T00:22:50;23.97;;;19.60;;
19595;SDS011;9945;46.010;8.946;2023-01-08T00:25:18;25.50;;;20.50;;
19595;SDS011;9945;46.010;8.946;2023-01-08T00:27:45;29.63;;;21.33;;
19595;SDS011;9945;46.010;8.946;2023-01-08T00:30:14;26.80;;;19.97;;
19595;SDS011;9945;46.010;8.946;2023-01-08T00:32:40;27.63;;;21.93;;
19595;SDS011;9945;46.010;8.946;2023-01-08T00:35:07;27.47;;;21.40;;
19595;SDS011;9945;46.010;8.946;2023-01-08T00:37:34;27.23;;;21.17;;
19595;SDS011;9945;46.010;8.946;2023-01-08T00:40:01;27.33;;;21.53;;
19595;SDS011;9945;46.010;8.946;2023-01-08T00:42:29;31.43;;;21.47;;
19595;SDS011;9945;46.010;8.946;2023-01-08T00:44:56;25.43;;;20.63;;
19595;SDS011;9945;46.010;8.946;2023-01-08T00:47:24;29.83;;;21.20;;
19595;SDS011;9945;46.010;8.946;2023-01-08T00:49:51;28.10;;;21.23;;
19595;SDS011;9945;46.010;8.946;2023-01-08T00:52:18;26.80;;;21.83;;
19595;SDS011;9945;46.010;8.946;2023-01-08T00:54:45;27.63;;;21.10;;
19595;SDS011;9945;46.010;8.946;2023-01-08T00:57:12;28.03;;;21.03;;
19595;SDS011;9945;46.010;8.946;2023-01-08T00:59:39;28.00;;;21.33;;
19595;SDS011;9945;46.010;8.946;2023-01-08T01:02:06;29.27;;;21.10;;
19595;SDS011;9945;46.010;8.946;2023-01-08T01:04:34;30.53;;;21.40;;
19595;SDS011;9945;46.010;8.946;2023-01-08T01:07:01;26.80;;;21.07;;
19595;SDS011;9945;46.010;8.946;2023-01-08T01:09:28;27.57;;;20.20;;
19595;SDS011;9945;46.010;8.946;2023-01-08T01:11:55;27.33;;;20.63;;
19595;SDS011;9945;46.010;8.946;2023-01-08T01:14:22;28.30;;;20.77;;
19595;SDS011;9945;46.010;8.946;2023-01-08T01:16:49;26.43;;;19.77;;
19595;SDS011;9945;46.010;8.946;2023-01-08T01:19:16;28.70;;;21.03;;
19595;SDS011;9945;46.010;8.946;2023-01-08T01:21:45;28.80;;;21.40;;
19595;SDS011;9945;46.010;8.946;2023-01-08T01:24:12;26.57;;;19.83;;
19595;SDS011;9945;46.010;8.946;2023-01-08T01:26:40;24.83;;;19.70;;
19595;SDS011;9945;46.010;8.946;2023-01-08T01:29:07;26.30;;;19.77;;
19595;SDS011;9945;46.010;8.946;2023-01-08T01:31:34;24.83;;;20.53;;
19595;SDS011;9945;46.010;8.946;2023-01-08T01:34:01;27.37;;;21.17;;
19595;SDS011;9945;46.010;8.946;2023-01-08T01:36:28;25.30;;;20.47;;
19595;SDS011;9945;46.010;8.946;2023-01-08T01:38:56;24.27;;;19.40;;
19595;SDS011;9945;46.010;8.946;2023-01-08T01:41:25;25.53;;;19.10;;
19595;SDS011;9945;46.010;8.946;2023-01-08T01:43:53;24.33;;;19.07;;
19595;SDS011;9945;46.010;8.946;2023-01-08T01:46:25;26.47;;;18.70;;
19595;SDS011;9945;46.010;8.946;2023-01-08T01:49:01;26.57;;;19.47;;
19595;SDS011;9945;46.010;8.946;2023-01-08T01:51:32;28.63;;;21.10;;
19595;SDS011;9945;46.010;8.946;2023-01-08T01:54:02;24.27;;;19.73;;
19595;SDS011;9945;46.010;8.946;2023-01-08T01:56:32;26.40;;;20.30;;
19595;SDS011;9945;46.010;8.946;2023-01-08T01:58:59;25.40;;;20.37;;
19595;SDS011;9945;46.010;8.946;2023-01-08T02:01:27;27.10;;;20.47;;
19595;SDS011;9945;46.010;8.946;2023-01-08T02:03:55;27.00;;;19.60;;
19595;SDS011;9945;46.010;8.946;2023-01-08T02:06:25;26.93;;;20.73;;
19595;SDS011;9945;46.010;8.946;2023-01-08T02:09:02;46.53;;;33.33;;
19595;SDS011;9945;46.010;8.946;2023-01-08T02:11:40;38.50;;;29.97;;
19595;SDS011;9945;46.010;8.946;2023-01-08T02:14:15;25.97;;;20.70;;
19595;SDS011;9945;46.010;8.946;2023-01-08T02:16:48;24.87;;;19.30;;
19595;SDS011;9945;46.010;8.946;2023-01-08T02:19:23;22.40;;;19.20;;
19595;SDS011;9945;46.010;8.946;2023-01-08T02:22:04;25.20;;;19.40;;
19595;SDS011;9945;46.010;8.946;2023-01-08T02:24:47;26.13;;;20.80;;
19595;SDS011;9945;46.010;8.946;2023-01-08T02:27:21;25.00;;;19.97;;
19595;SDS011;9945;46.010;8.946;2023-01-08T02:29:50;27.20;;;20.80;;
19595;SDS011;9945;46.010;8.946;2023-01-08T02:32:21;23.70;;;20.13;;
19595;SDS011;9945;46.010;8.946;2023-01-08T02:34:50;26.70;;;20.80;;
19595;SDS011;9945;46.010;8.946;2023-01-08T02:37:17;25.23;;;20.43;;
19595;SDS011;9945;46.010;8.946;2023-01-08T02:40:02;26.90;;;20.77;;
19595;SDS011;9945;46.010;8.946;2023-01-08T02:42:39;26.70;;;19.47;;
19595;SDS011;9945;46.010;8.946;2023-01-08T02:45:16;27.33;;;21.53;;
19595;SDS011;9945;46.010;8.946;2023-01-08T02:47:52;27.47;;;19.73;;
19595;SDS011;9945;46.010;8.946;2023-01-08T02:50:27;28.53;;;23.80;;
19595;SDS011;9945;46.010;8.946;2023-01-08T02:53:00;32.53;;;26.00;;
19595;SDS011;9945;46.010;8.946;2023-01-08T02:55:30;30.20;;;24.50;;
19595;SDS011;9945;46.010;8.946;2023-01-08T02:58:01;29.00;;;22.47;;
19595;SDS011;9945;46.010;8.946;2023-01-08T03:00:29;33.27;;;23.43;;
19595;SDS011;9945;46.010;8.946;2023-01-08T03:03:00;31.57;;;22.20;;
19595;SDS011;9945;46.010;8.946;2023-01-08T03:05:32;27.47;;;21.43;;
19595;SDS011;9945;46.010;8.946;2023-01-08T03:08:00;24.83;;;20.53;;
19595;SDS011;9945;46.010;8.946;2023-01-08T03:10:28;28.43;;;20.87;;
19595;SDS011;9945;46.010;8.946;2023-01-08T03:12:57;24.70;;;20.00;;
19595;SDS011;9945;46.010;8.946;2023-01-08T03:15:30;27.00;;;19.77;;
19595;SDS011;9945;46.010;8.946;2023-01-08T03:18:03;26.57;;;21.17;;
19595;SDS011;9945;46.010;8.946;2023-01-08T03:20:35;24.93;;;20.47;;
19595;SDS011;9945;46.010;8.946;2023-01-08T03:23:05;25.27;;;20.40;;
19595;SDS011;9945;46.010;8.946;2023-01-08T03:25:35;25.40;;;20.43;;
19595;SDS011;9945;46.010;8.946;2023-01-08T03:28:07;26.17;;;20.77;;
19595;SDS011;9945;46.010;8.946;2023-01-08T03:30:39;27.13;;;19.70;;
19595;SDS011;9945;46.010;8.946;2023-01-08T03:33:09;27.87;;;20.43;;
19595;SDS011;9945;46.010;8.946;2023-01-08T03:35:38;28.93;;;21.53;;
19595;SDS011;9945;46.010;8.946;2023-01-08T03:38:08;26.90;;;21.80;;
19595;SDS011;9945;46.010;8.946;2023-01-08T03:40:42;26.27;;;20.33;;
19595;SDS011;9945;46.010;8.946;2023-01-08T03:43:12;23.90;;;20.03;;
19595;SDS011;9945;46.010;8.946;2023-01-08T03:45:46;27.70;;;19.87;;
19595;SDS011;9945;46.010;8.946;2023-01-08T03:48:16;27.53;;;20.53;;
19595;SDS011;9945;46.010;8.946;2023-01-08T03:50:45;27.23;;;21.73;;
19595;SDS011;9945;46.010;8.946;2023-01-08T03:53:13;26.83;;;20.10;;
19595;SDS011;9945;46.010;8.946;2023-01-08T03:55:40;24.40;;;19.50;;
19595;SDS011;9945;46.010;8.946;2023-01-08T03:58:07;27.63;;;20.80;;
19595;SDS011;9945;46.010;8.946;2023-01-08T04:00:34;25.47;;;18.93;;
19595;SDS011;9945;46.010;8.946;2023-01-08T04:03:03;31.00;;;21.90;;
19595;SDS011;9945;46.010;8.946;2023-01-08T04:05:30;26.97;;;20.20;;
19595;SDS011;9945;46.010;8.946;2023-01-08T04:07:57;29.13;;;20.10;;
19595;SDS011;9945;46.010;8.946;2023-01-08T04:10:24;25.20;;;20.60;;
19595;SDS011;9945;46.010;8.946;2023-01-08T04:12:51;26.67;;;21.17;;
19595;SDS011;9945;46.010;8.946;2023-01-08T04:15:18;28.83;;;21.33;;
19595;SDS011;9945;46.010;8.946;2023-01-08T04:17:45;26.50;;;20.87;;
19595;SDS011;9945;46.010;8.946;2023-01-08T04:20:14;24.87;;;20.90;;
19595;SDS011;9945;46.010;8.946;2023-01-08T04:22:41;25.23;;;20.40;;
19595;SDS011;9945;46.010;8.946;2023-01-08T04:25:08;25.93;;;20.70;;
19595;SDS011;9945;46.010;8.946;2023-01-08T04:27:34;29.40;;;20.57;;
19595;SDS011;9945;46.010;8.946;2023-01-08T04:30:01;30.20;;;21.53;;
19595;SDS011;9945;46.010;8.946;2023-01-08T04:32:29;27.13;;;20.50;;
19595;SDS011;9945;46.010;8.946;2023-01-08T04:34:56;27.03;;;21.87;;
19595;SDS011;9945;46.010;8.946;2023-01-08T04:37:24;26.43;;;21.10;;
19595;SDS011;9945;46.010;8.946;2023-01-08T04:39:51;32.60;;;20.37;;
19595;SDS011;9945;46.010;8.946;2023-01-08T04:42:18;28.90;;;21.77;;
19595;SDS011;9945;46.010;8.946;2023-01-08T04:44:45;27.63;;;22.57;;
19595;SDS011;9945;46.010;8.946;2023-01-08T04:47:11;29.07;;;21.20;;
19595;SDS011;9945;46.010;8.946;2023-01-08T04:49:39;27.33;;;20.60;;
19595;SDS011;9945;46.010;8.946;2023-01-08T04:52:06;28.17;;;21.73;;
19595;SDS011;9945;46.010;8.946;2023-01-08T04:54:34;30.53;;;22.43;;
19595;SDS011;9945;46.010;8.946;2023-01-08T04:57:01;31.43;;;23.20;;
19595;SDS011;9945;46.010;8.946;2023-01-08T04:59:28;31.00;;;21.43;;
19595;SDS011;9945;46.010;8.946;2023-01-08T05:01:54;27.47;;;21.07;;
19595;SDS011;9945;46.010;8.946;2023-01-08T05:04:22;29.40;;;22.40;;
19595;SDS011;9945;46.010;8.946;2023-01-08T05:06:49;26.50;;;21.77;;
19595;SDS011;9945;46.010;8.946;2023-01-08T05:09:15;27.37;;;21.13;;
19595;SDS011;9945;46.010;8.946;2023-01-08T05:11:44;26.93;;;21.50;;
19595;SDS011;9945;46.010;8.946;2023-01-08T05:14:11;26.50;;;22.10;;
19595;SDS011;9945;46.010;8.946;2023-01-08T05:16:37;28.17;;;21.87;;
19595;SDS011;9945;46.010;8.946;2023-01-08T05:19:04;26.60;;;22.13;;
19595;SDS011;9945;46.010;8.946;2023-01-08T05:21:31;25.43;;;20.40;;
19595;SDS011;9945;46.010;8.946;2023-01-08T05:23:58;26.90;;;20.67;;
19595;SDS011;9945;46.010;8.946;2023-01-08T05:26:25;24.13;;;19.80;;
19595;SDS011;9945;46.010;8.946;2023-01-08T05:28:54;25.17;;;19.70;;
19595;SDS011;9945;46.010;8.946;2023-01-08T05:31:21;24.00;;;18.60;;
19595;SDS011;9945;46.010;8.946;2023-01-08T05:33:48;22.67;;;18.60;;
19595;SDS011;9945;46.010;8.946;2023-01-08T05:36:15;26.63;;;20.23;;
19595;SDS011;9945;46.010;8.946;2023-01-08T05:38:42;26.37;;;19.60;;
19595;SDS011;9945;46.010;8.946;2023-01-08T05:41:09;23.97;;;19.50;;
19595;SDS011;9945;46.010;8.946;2023-01-08T05:43:36;26.43;;;20.87;;
19595;SDS011;9945;46.010;8.946;2023-01-08T05:46:05;24.90;;;20.23;;
19595;SDS011;9945;46.010;8.946;2023-01-08T05:48:33;31.07;;;20.87;;
19595;SDS011;9945;46.010;8.946;2023-01-08T05:51:01;27.93;;;21.07;;
19595;SDS011;9945;46.010;8.946;2023-01-08T05:53:29;26.90;;;21.40;;
19595;SDS011;9945;46.010;8.946;2023-01-08T05:55:57;28.03;;;22.10;;
19595;SDS011;9945;46.010;8.946;2023-01-08T05:58:25;29.33;;;21.27;;
19595;SDS011;9945;46.010;8.946;2023-01-08T06:00:52;28.50;;;22.87;;
19595;SDS011;9945;46.010;8.946;2023-01-08T06:03:21;30.13;;;22.93;;
19595;SDS011;9945;46.010;8.946;2023-01-08T06:05:48;28.37;;;21.93;;
19595;SDS011;9945;46.010;8.946;2023-01-08T06:08:15;26.23;;;21.63;;
19595;SDS011;9945;46.010;8.946;2023-01-08T06:10:42;25.80;;;21.10;;
19595;SDS011;9945;46.010;8.946;2023-01-08T06:13:09;26.07;;;20.73;;
19595;SDS011;9945;46.010;8.946;2023-01-08T06:15:36;31.00;;;21.47;;
19595;SDS011;9945;46.010;8.946;2023-01-08T06:18:04;29.07;;;21.63;;
19595;SDS011;9945;46.010;8.946;2023-01-08T06:20:32;27.37;;;21.47;;
19595;SDS011;9945;46.010;8.946;2023-01-08T06:22:59;29.73;;;22.30;;
19595;SDS011;9945;46.010;8.946;2023-01-08T06:25:26;30.57;;;21.60;;
19595;SDS011;9945;46.010;8.946;2023-01-08T06:27:53;25.53;;;21.10;;
19595;SDS011;9945;46.010;8.946;2023-01-08T06:30:20;28.20;;;22.13;;
19595;SDS011;9945;46.010;8.946;2023-01-08T06:32:47;29.63;;;22.43;;
19595;SDS011;9945;46.010;8.946;2023-01-08T06:35:14;28.53;;;21.27;;
19595;SDS011;9945;46.010;8.946;2023-01-08T06:37:42;26.63;;;20.97;;
19595;SDS011;9945;46.010;8.946;2023-01-08T06:40:09;27.50;;;21.60;;
19595;SDS011;9945;46.010;8.946;2023-01-08T06:42:37;27.70;;;20.73;;
19595;SDS011;9945;46.010;8.946;2023-01-08T06:45:04;24.67;;;20.43;;
19595;SDS011;9945;46.010;8.946;2023-01-08T06:47:32;24.83;;;20.17;;
19595;SDS011;9945;46.010;8.946;2023-01-08T06:49:59;23.80;;;20.10;;
19595;SDS011;9945;46.010;8.946;2023-01-08T06:52:26;27.47;;;20.50;;
19595;SDS011;9945;46.010;8.946;2023-01-08T06:54:54;28.80;;;21.17;;
19595;SDS011;9945;46.010;8.946;2023-01-08T06:57:21;25.73;;;20.23;;
19595;SDS011;9945;46.010;8.946;2023-01-08T06:59:48;34.93;;;22.43;;
19595;SDS011;9945;46.010;8.946;2023-01-08T07:02:15;25.87;;;20.53;;
19595;SDS011;9945;46.010;8.946;2023-01-08T07:04:43;29.00;;;22.43;;
19595;SDS011;9945;46.010;8.946;2023-01-08T07:07:11;24.70;;;20.03;;
19595;SDS011;9945;46.010;8.946;2023-01-08T07:09:39;25.33;;;21.10;;
19595;SDS011;9945;46.010;8.946;2023-01-08T07:12:09;26.93;;;22.40;;
19595;SDS011;9945;46.010;8.946;2023-01-08T07:14:37;27.77;;;21.80;;
19595;SDS011;9945;46.010;8.946;2023-01-08T07:17:04;25.17;;;20.87;;
19595;SDS011;9945;46.010;8.946;2023-01-08T07:19:31;27.70;;;21.53;;
19595;SDS011;9945;46.010;8.946;2023-01-08T07:21:57;26.53;;;21.77;;
19595;SDS011;9945;46.010;8.946;2023-01-08T07:24:24;26.57;;;21.60;;
19595;SDS011;9945;46.010;8.946;2023-01-08T07:26:51;26.83;;;22.00;;
19595;SDS011;9945;46.010;8.946;2023-01-08T07:29:20;26.47;;;20.40;;
19595;SDS011;9945;46.010;8.946;2023-01-08T07:31:47;24.93;;;21.07;;
19595;SDS011;9945;46.010;8.946;2023-01-08T07:34:14;27.77;;;21.90;;
19595;SDS011;9945;46.010;8.946;2023-01-08T07:36:40;24.67;;;21.00;;
19595;SDS011;9945;46.010;8.946;2023-01-08T07:39:07;24.97;;;20.97;;
19595;SDS011;9945;46.010;8.946;2023-01-08T07:41:34;29.40;;;23.37;;
19595;SDS011;9945;46.010;8.946;2023-01-08T07:44:01;25.67;;;21.40;;
19595;SDS011;9945;46.010;8.946;2023-01-08T07:46:29;29.10;;;21.70;;
19595;SDS011;9945;46.010;8.946;2023-01-08T07:48:56;28.83;;;21.73;;
19595;SDS011;9945;46.010;8.946;2023-01-08T07:51:23;28.10;;;22.63;;
19595;SDS011;9945;46.010;8.946;2023-01-08T07:53:50;26.70;;;21.57;;
19595;SDS011;9945;46.010;8.946;2023-01-08T07:56:17;26.87;;;22.13;;
19595;SDS011;9945;46.010;8.946;2023-01-08T07:58:44;29.40;;;22.47;;
19595;SDS011;9945;46.010;8.946;2023-01-08T08:01:11;29.27;;;21.13;;
19595;SDS011;9945;46.010;8.946;2023-01-08T08:03:39;27.00;;;21.33;;
19595;SDS011;9945;46.010;8.946;2023-01-08T08:06:07;28.83;;;21.60;;
19595;SDS011;9945;46.010;8.946;2023-01-08T08:08:34;30.40;;;22.10;;
19595;SDS011;9945;46.010;8.946;2023-01-08T08:11:01;28.60;;;22.37;;
19595;SDS011;9945;46.010;8.946;2023-01-08T08:13:28;27.27;;;22.20;;
19595;SDS011;9945;46.010;8.946;2023-01-08T08:15:59;29.77;;;22.87;;
19595;SDS011;9945;46.010;8.946;2023-01-08T08:18:26;25.50;;;21.43;;
19595;SDS011;9945;46.010;8.946;2023-01-08T08:20:55;26.63;;;22.13;;
19595;SDS011;9945;46.010;8.946;2023-01-08T08:23:22;29.37;;;22.20;;
19595;SDS011;9945;46.010;8.946;2023-01-08T08:25:49;27.47;;;22.20;;
19595;SDS011;9945;46.010;8.946;2023-01-08T08:28:16;25.90;;;21.17;;
19595;SDS011;9945;46.010;8.946;2023-01-08T08:30:43;27.93;;;22.20;;
19595;SDS011;9945;46.010;8.946;2023-01-08T08:33:10;25.40;;;21.10;;
19595;SDS011;9945;46.010;8.946;2023-01-08T08:35:38;28.57;;;22.37;;
19595;SDS011;9945;46.010;8.946;2023-01-08T08:38:06;27.07;;;22.50;;
19595;SDS011;9945;46.010;8.946;2023-01-08T08:40:33;30.53;;;23.70;;
19595;SDS011;9945;46.010;8.946;2023-01-08T08:43:01;25.37;;;21.03;;
19595;SDS011;9945;46.010;8.946;2023-01-08T08:45:29;29.80;;;23.47;;
19595;SDS011;9945;46.010;8.946;2023-01-08T08:47:56;31.33;;;24.63;;
19595;SDS011;9945;46.010;8.946;2023-01-08T08:50:23;26.93;;;21.77;;
19595;SDS011;9945;46.010;8.946;2023-01-08T08:52:50;32.70;;;23.77;;
19595;SDS011;9945;46.010;8.946;2023-01-08T08:55:18;26.97;;;22.87;;
19595;SDS011;9945;46.010;8.946;2023-01-08T08:57:46;28.73;;;22.57;;
19595;SDS011;9945;46.010;8.946;2023-01-08T09:00:14;27.77;;;22.77;;
19595;SDS011;9945;46.010;8.946;2023-01-08T09:02:41;31.43;;;23.10;;
19595;SDS011;9945;46.010;8.946;2023-01-08T09:05:09;32.13;;;23.50;;
19595;SDS011;9945;46.010;8.946;2023-01-08T09:07:38;27.43;;;22.30;;
19595;SDS011;9945;46.010;8.946;2023-01-08T09:10:05;27.57;;;22.03;;
19595;SDS011;9945;46.010;8.946;2023-01-08T09:12:34;26.40;;;21.97;;
19595;SDS011;9945;46.010;8.946;2023-01-08T09:15:01;27.20;;;21.77;;
19595;SDS011;9945;46.010;8.946;2023-01-08T09:17:29;29.37;;;22.53;;
19595;SDS011;9945;46.010;8.946;2023-01-08T09:19:56;30.40;;;22.93;;
19595;SDS011;9945;46.010;8.946;2023-01-08T09:22:23;28.50;;;22.47;;
19595;SDS011;9945;46.010;8.946;2023-01-08T09:24:50;27.97;;;22.57;;
19595;SDS011;9945;46.010;8.946;2023-01-08T09:27:19;28.53;;;22.37;;
19595;SDS011;9945;46.010;8.946;2023-01-08T09:29:47;28.67;;;23.10;;
19595;SDS011;9945;46.010;8.946;2023-01-08T09:32:14;31.90;;;23.53;;
19595;SDS011;9945;46.010;8.946;2023-01-08T09:34:41;30.73;;;23.33;;
19595;SDS011;9945;46.010;8.946;2023-01-08T09:37:08;30.10;;;23.33;;
19595;SDS011;9945;46.010;8.946;2023-01-08T09:39:35;26.97;;;22.40;;
19595;SDS011;9945;46.010;8.946;2023-01-08T09:42:04;31.87;;;23.93;;
19595;SDS011;9945;46.010;8.946;2023-01-08T09:44:32;28.83;;;22.67;;
19595;SDS011;9945;46.010;8.946;2023-01-08T09:47:04;30.57;;;23.77;;
19595;SDS011;9945;46.010;8.946;2023-01-08T09:49:42;29.33;;;23.00;;
19595;SDS011;9945;46.010;8.946;2023-01-08T09:52:12;35.90;;;24.33;;
19595;SDS011;9945;46.010;8.946;2023-01-08T09:54:40;30.50;;;22.77;;
19595;SDS011;9945;46.010;8.946;2023-01-08T09:57:09;28.53;;;23.07;;
19595;SDS011;9945;46.010;8.946;2023-01-08T09:59:38;31.00;;;22.63;;
19595;SDS011;9945;46.010;8.946;2023-01-08T10:02:11;28.37;;;22.50;;
19595;SDS011;9945;46.010;8.946;2023-01-08T10:04:40;31.40;;;23.90;;
19595;SDS011;9945;46.010;8.946;2023-01-08T10:07:10;32.37;;;24.43;;
19595;SDS011;9945;46.010;8.946;2023-01-08T10:09:45;28.27;;;22.90;;
19595;SDS011;9945;46.010;8.946;2023-01-08T10:12:13;29.27;;;23.70;;
19595;SDS011;9945;46.010;8.946;2023-01-08T10:14:41;27.43;;;22.87;;
19595;SDS011;9945;46.010;8.946;2023-01-08T10:17:25;28.03;;;22.07;;
19595;SDS011;9945;46.010;8.946;2023-01-08T10:19:56;25.70;;;21.53;;
19595;SDS011;9945;46.010;8.946;2023-01-08T10:22:23;29.37;;;23.20;;
19595;SDS011;9945;46.010;8.946;2023-01-08T10:25:01;31.13;;;23.57;;
19595;SDS011;9945;46.010;8.946;2023-01-08T10:27:31;30.57;;;24.23;;
19595;SDS011;9945;46.010;8.946;2023-01-08T10:30:03;33.83;;;24.43;;
19595;SDS011;9945;46.010;8.946;2023-01-08T10:32:33;28.03;;;22.67;;
19595;SDS011;9945;46.010;8.946;2023-01-08T10:35:03;29.40;;;24.53;;
19595;SDS011;9945;46.010;8.946;2023-01-08T10:37:35;28.97;;;23.73;;
19595;SDS011;9945;46.010;8.946;2023-01-08T10:40:05;31.57;;;25.43;;
19595;SDS011;9945;46.010;8.946;2023-01-08T10:43:04;28.70;;;23.47;;
19595;SDS011;9945;46.010;8.946;2023-01-08T10:45:34;28.97;;;23.50;;
19595;SDS011;9945;46.010;8.946;2023-01-08T10:48:03;27.73;;;23.73;;
19595;SDS011;9945;46.010;8.946;2023-01-08T10:50:33;31.20;;;25.60;;
19595;SDS011;9945;46.010;8.946;2023-01-08T10:53:00;30.83;;;24.20;;
19595;SDS011;9945;46.010;8.946;2023-01-08T10:55:31;28.93;;;23.23;;
19595;SDS011;9945;46.010;8.946;2023-01-08T10:58:02;28.40;;;23.50;;
19595;SDS011;9945;46.010;8.946;2023-01-08T11:00:37;31.87;;;23.57;;
19595;SDS011;9945;46.010;8.946;2023-01-08T11:03:06;28.70;;;23.57;;
19595;SDS011;9945;46.010;8.946;2023-01-08T11:05:40;28.63;;;23.53;;
19595;SDS011;9945;46.010;8.946;2023-01-08T11:08:12;30.00;;;22.53;;
19595;SDS011;9945;46.010;8.946;2023-01-08T11:10:41;28.30;;;22.47;;
19595;SDS011;9945;46.010;8.946;2023-01-08T11:13:17;28.47;;;23.20;;
19595;SDS011;9945;46.010;8.946;2023-01-08T11:15:45;27.10;;;24.17;;
19595;SDS011;9945;46.010;8.946;2023-01-08T11:18:26;29.07;;;24.03;;
19595;SDS011;9945;46.010;8.946;2023-01-08T11:21:05;28.10;;;23.67;;
19595;SDS011;9945;46.010;8.946;2023-01-08T11:23:33;27.77;;;23.00;;
19595;SDS011;9945;46.010;8.946;2023-01-08T11:26:01;28.07;;;23.07;;
19595;SDS011;9945;46.010;8.946;2023-01-08T11:28:40;25.20;;;21.80;;
19595;SDS011;9945;46.010;8.946;2023-01-08T11:31:13;26.53;;;22.40;;
19595;SDS011;9945;46.010;8.946;2023-01-08T11:33:44;26.57;;;22.53;;
19595;SDS011;9945;46.010;8.946;2023-01-08T11:36:19;25.30;;;21.43;;
19595;SDS011;9945;46.010;8.946;2023-01-08T11:38:53;31.03;;;24.27;;
19595;SDS011;9945;46.010;8.946;2023-01-08T11:41:27;27.63;;;23.47;;
19595;SDS011;9945;46.010;8.946;2023-01-08T11:44:10;30.83;;;24.77;;
19595;SDS011;9945;46.010;8.946;2023-01-08T11:46:53;30.03;;;23.53;;
19595;SDS011;9945;46.010;8.946;2023-01-08T11:49:36;25.67;;;22.60;;
19595;SDS011;9945;46.010;8.946;2023-01-08T11:52:17;26.73;;;23.80;;
19595;SDS011;9945;46.010;8.946;2023-01-08T11:57:51;27.17;;;22.97;;
19595;SDS011;9945;46.010;8.946;2023-01-08T12:00:39;27.87;;;22.20;;
19595;SDS011;9945;46.010;8.946;2023-01-08T12:03:19;26.20;;;21.57;;
19595;SDS011;9945;46.010;8.946;2023-01-08T12:05:58;24.57;;;21.40;;
19595;SDS011;9945;46.010;8.946;2023-01-08T12:08:35;24.77;;;20.40;;
19595;SDS011;9945;46.010;8.946;2023-01-08T12:11:13;26.80;;;21.57;;
19595;SDS011;9945;46.010;8.946;2023-01-08T12:13:50;24.13;;;21.57;;
19595;SDS011;9945;46.010;8.946;2023-01-08T12:16:45;23.53;;;20.30;;
19595;SDS011;9945;46.010;8.946;2023-01-08T12:19:26;24.17;;;19.93;;
19595;SDS011;9945;46.010;8.946;2023-01-08T12:22:09;21.10;;;18.80;;
19595;SDS011;9945;46.010;8.946;2023-01-08T12:24:57;20.97;;;18.17;;
19595;SDS011;9945;46.010;8.946;2023-01-08T12:27:40;21.33;;;19.10;;
19595;SDS011;9945;46.010;8.946;2023-01-08T12:30:20;23.00;;;19.87;;
19595;SDS011;9945;46.010;8.946;2023-01-08T12:32:57;23.60;;;20.07;;
19595;SDS011;9945;46.010;8.946;2023-01-08T12:35:30;26.03;;;21.03;;
19595;SDS011;9945;46.010;8.946;2023-01-08T12:38:04;25.13;;;21.37;;
19595;SDS011;9945;46.010;8.946;2023-01-08T12:40:36;21.03;;;18.73;;
19595;SDS011;9945;46.010;8.946;2023-01-08T12:43:10;24.77;;;21.13;;
19595;SDS011;9945;46.010;8.946;2023-01-08T12:45:40;23.90;;;21.37;;
19595;SDS011;9945;46.010;8.946;2023-01-08T12:48:11;24.03;;;21.37;;
19595;SDS011;9945;46.010;8.946;2023-01-08T12:50:43;24.97;;;21.43;;
19595;SDS011;9945;46.010;8.946;2023-01-08T12:53:25;24.50;;;20.93;;
19595;SDS011;9945;46.010;8.946;2023-01-08T12:56:01;21.83;;;19.40;;
19595;SDS011;9945;46.010;8.946;2023-01-08T12:58:38;21.53;;;19.27;;
19595;SDS011;9945;46.010;8.946;2023-01-08T13:01:24;20.27;;;18.23;;
19595;SDS011;9945;46.010;8.946;2023-01-08T13:03:58;15.20;;;13.60;;
19595;SDS011;9945;46.010;8.946;2023-01-08T13:06:29;16.33;;;14.63;;
19595;SDS011;9945;46.010;8.946;2023-01-08T13:08:57;16.13;;;14.50;;
19595;SDS011;9945;46.010;8.946;2023-01-08T13:11:26;16.57;;;15.00;;
19595;SDS011;9945;46.010;8.946;2023-01-08T13:13:58;15.43;;;13.83;;
19595;SDS011;9945;46.010;8.946;2023-01-08T13:16:27;15.57;;;14.10;;
19595;SDS011;9945;46.010;8.946;2023-01-08T13:18:56;15.37;;;13.87;;
19595;SDS011;9945;46.010;8.946;2023-01-08T13:21:31;15.90;;;14.30;;
19595;SDS011;9945;46.010;8.946;2023-01-08T13:24:04;16.33;;;14.73;;
19595;SDS011;9945;46.010;8.946;2023-01-08T13:26:33;20.93;;;18.47;;
19595;SDS011;9945;46.010;8.946;2023-01-08T13:29:05;20.70;;;17.67;;
19595;SDS011;9945;46.010;8.946;2023-01-08T13:31:49;20.10;;;18.00;;
19595;SDS011;9945;46.010;8.946;2023-01-08T13:34:18;19.03;;;17.03;;
19595;SDS011;9945;46.010;8.946;2023-01-08T13:36:56;18.90;;;16.90;;
19595;SDS011;9945;46.010;8.946;2023-01-08T13:39:31;19.20;;;17.17;;
19595;SDS011;9945;46.010;8.946;2023-01-08T13:42:11;19.17;;;17.17;;
19595;SDS011;9945;46.010;8.946;2023-01-08T13:44:47;19.63;;;17.00;;
19595;SDS011;9945;46.010;8.946;2023-01-08T13:47:17;18.67;;;16.53;;
19595;SDS011;9945;46.010;8.946;2023-01-08T13:49:48;19.93;;;17.80;;
19595;SDS011;9945;46.010;8.946;2023-01-08T13:55:14;19.17;;;17.07;;
19595;SDS011;9945;46.010;8.946;2023-01-08T13:57:43;19.87;;;17.67;;
19595;SDS011;9945;46.010;8.946;2023-01-08T14:00:17;18.70;;;16.80;;
19595;SDS011;9945;46.010;8.946;2023-01-08T14:02:48;19.17;;;17.17;;
19595;SDS011;9945;46.010;8.946;2023-01-08T14:05:20;17.80;;;16.07;;
19595;SDS011;9945;46.010;8.946;2023-01-08T14:07:49;19.17;;;17.17;;
19595;SDS011;9945;46.010;8.946;2023-01-08T14:10:18;19.30;;;17.23;;
19595;SDS011;9945;46.010;8.946;2023-01-08T14:12:46;18.97;;;17.07;;
19595;SDS011;9945;46.010;8.946;2023-01-08T14:15:21;17.37;;;15.43;;
19595;SDS011;9945;46.010;8.946;2023-01-08T14:17:50;19.63;;;17.70;;
19595;SDS011;9945;46.010;8.946;2023-01-08T14:20:19;24.70;;;21.00;;
19595;SDS011;9945;46.010;8.946;2023-01-08T14:22:52;24.50;;;20.67;;
19595;SDS011;9945;46.010;8.946;2023-01-08T14:25:20;21.23;;;18.73;;
19595;SDS011;9945;46.010;8.946;2023-01-08T14:27:58;19.47;;;16.57;;
19595;SDS011;9945;46.010;8.946;2023-01-08T14:30:26;20.53;;;17.53;;
19595;SDS011;9945;46.010;8.946;2023-01-08T14:32:54;20.17;;;17.77;;
19595;SDS011;9945;46.010;8.946;2023-01-08T14:35:26;20.80;;;17.70;;
19595;SDS011;9945;46.010;8.946;2023-01-08T14:37:57;19.87;;;17.77;;
19595;SDS011;9945;46.010;8.946;2023-01-08T14:40:33;18.17;;;16.30;;
19595;SDS011;9945;46.010;8.946;2023-01-08T14:43:08;18.60;;;16.63;;
19595;SDS011;9945;46.010;8.946;2023-01-08T14:45:37;19.43;;;16.00;;
19595;SDS011;9945;46.010;8.946;2023-01-08T14:48:10;18.87;;;16.87;;
19595;SDS011;9945;46.010;8.946;2023-01-08T14:50:43;18.83;;;16.80;;
19595;SDS011;9945;46.010;8.946;2023-01-08T14:53:26;18.07;;;16.17;;
19595;SDS011;9945;46.010;8.946;2023-01-08T14:55:57;17.23;;;14.97;;